Terminal Aerodrome Forecast
Issued by NWS San Angelo, TX

Home | Current Version | Previous Version | Text Only | Print | Product List | Glossary On
Versions: 1 2 3 4 5 6 7 8 9 10 11 12 13 14 15 16 17 18 19 20 21 22 23 24 25 26 27
684
FTUS44 KSJT 050531
TAFSJT
TAF
KSJT 050531Z 0506/0606 04005KT P6SM OVC045
      TEMPO 0508/0512 -RA BKN020
     FM051200 31004KT 4SM -RA BR OVC014
     FM051700 24006KT P6SM OVC015
     FM052100 24008KT P6SM BKN050=

USA.gov is the U.S. government's official web portal to all federal, state and local government web resources and services.